createdAt,value
2018-05-27T00:02:11.102Z,60.48
2018-05-27T00:04:41.194Z,60.38
2018-05-27T00:07:10.300Z,59.98
2018-05-27T00:09:39.438Z,60.25
2018-05-27T00:12:09.319Z,60.34
2018-05-27T00:14:38.499Z,60.65
2018-05-27T00:17:07.640Z,61.11
2018-05-27T00:19:37.506Z,61.14
2018-05-27T00:22:06.618Z,60.27
2018-05-27T00:24:35.734Z,59.76
2018-05-27T00:27:05.629Z,58.90
2018-05-27T00:29:34.752Z,58.92
2018-05-27T00:32:05.344Z,58.69
2018-05-27T00:34:35.403Z,58.45
2018-05-27T00:37:05.265Z,58.35
2018-05-27T00:39:34.386Z,58.27
2018-05-27T00:42:03.517Z,58.29
2018-05-27T00:44:33.772Z,58.86
2018-05-27T00:47:02.903Z,59.41
2018-05-27T00:49:32.010Z,60.02
2018-05-27T00:52:01.885Z,60.36
2018-05-27T00:54:31.008Z,60.33
2018-05-27T00:57:00.170Z,60.51
2018-05-27T00:59:29.320Z,60.43
2018-05-27T01:01:59.164Z,60.05
2018-05-27T01:04:28.722Z,61.06
2018-05-27T01:06:58.609Z,61.73
2018-05-27T01:09:28.729Z,62.39
2018-05-27T01:11:58.838Z,62.93
2018-05-27T01:14:28.753Z,64.01
2018-05-27T01:16:57.904Z,64.55
2018-05-27T01:19:27.007Z,64.45
2018-05-27T01:21:56.921Z,64.59
2018-05-27T01:24:26.823Z,64.92
2018-05-27T01:26:55.956Z,64.72
2018-05-27T01:29:25.082Z,63.85
2018-05-27T01:31:54.232Z,63.52
2018-05-27T01:34:23.342Z,62.60
2018-05-27T01:36:52.451Z,61.50
2018-05-27T01:39:21.588Z,61.57
2018-05-27T01:41:50.708Z,61.86
2018-05-27T01:44:20.624Z,62.25
2018-05-27T01:46:50.490Z,62.15
2018-05-27T01:49:19.608Z,61.07
2018-05-27T01:51:48.704Z,60.57
2018-05-27T01:54:17.833Z,60.35
2018-05-27T01:56:46.936Z,60.32
2018-05-27T01:59:16.848Z,60.05
2018-05-27T02:01:45.927Z,59.88
2018-05-27T02:04:15.784Z,59.61
2018-05-27T02:06:44.901Z,59.57
2018-05-27T02:09:14.029Z,59.68
2018-05-27T02:11:44.960Z,59.86
2018-05-27T02:14:14.070Z,60.67
2018-05-27T02:16:43.975Z,60.92
2018-05-27T02:19:13.067Z,60.97
2018-05-27T02:21:44.130Z,60.83
2018-05-27T02:24:13.988Z,62.01
2018-05-27T02:26:43.130Z,62.46
2018-05-27T02:29:13.003Z,63.69
2018-05-27T02:31:43.057Z,64.31
2018-05-27T02:34:12.286Z,64.67
2018-05-27T02:36:41.434Z,65.06
2018-05-27T02:39:10.573Z,65.58
2018-05-27T02:41:40.666Z,65.04
2018-05-27T02:44:10.534Z,65.11
2018-05-27T02:46:39.664Z,65.08
2018-05-27T02:49:08.762Z,65.31
2018-05-27T02:51:37.918Z,63.92
2018-05-27T02:54:07.035Z,63.08
2018-05-27T02:56:36.162Z,63.36
2018-05-27T02:59:06.036Z,62.76
2018-05-27T03:01:35.988Z,63.45
2018-05-27T03:04:05.088Z,63.74
2018-05-27T03:06:34.979Z,64.51
2018-05-27T03:09:06.435Z,64.34
2018-05-27T03:11:35.564Z,63.92
2018-05-27T03:14:05.449Z,63.65
2018-05-27T03:16:36.122Z,63.79
2018-05-27T03:19:05.995Z,62.66
2018-05-27T03:21:35.105Z,61.66
2018-05-27T03:24:05.006Z,61.56
2018-05-27T03:26:34.111Z,61.56
2018-05-27T03:29:03.222Z,62.25
2018-05-27T03:31:33.112Z,63.43
2018-05-27T03:34:02.343Z,63.80
2018-05-27T03:36:31.495Z,64.23
2018-05-27T03:39:01.430Z,64.98
2018-05-27T03:41:31.469Z,65.22
2018-05-27T03:44:01.452Z,64.34
2018-05-27T03:46:30.572Z,63.51
2018-05-27T03:49:00.493Z,62.84
2018-05-27T03:51:30.389Z,62.68
2018-05-27T03:53:59.504Z,62.55
2018-05-27T03:56:30.335Z,62.58
2018-05-27T03:59:00.222Z,62.76
2018-05-27T04:01:29.395Z,62.87
2018-05-27T04:04:17.134Z,62.84
2018-05-27T04:07:04.084Z,62.53
2018-05-27T04:09:33.199Z,62.54
2018-05-27T04:12:03.106Z,62.45
2018-05-27T04:14:32.236Z,62.38
2018-05-27T04:17:01.364Z,62.33
2018-05-27T04:19:30.558Z,62.18
2018-05-27T04:22:00.639Z,62.30
2018-05-27T04:24:30.503Z,62.25
2018-05-27T04:26:59.604Z,62.23
2018-05-27T04:29:29.508Z,62.40
2018-05-27T04:31:58.609Z,62.35
2018-05-27T04:34:27.737Z,62.83
2018-05-27T04:36:57.617Z,63.34
2018-05-27T04:39:27.682Z,63.47
2018-05-27T04:41:56.833Z,63.32
2018-05-27T04:44:25.933Z,62.42
2018-05-27T04:46:55.058Z,62.46
2018-05-27T04:49:24.975Z,62.34
2018-05-27T04:51:54.081Z,61.75
2018-05-27T04:54:23.193Z,61.49
2018-05-27T04:56:52.328Z,61.32
2018-05-27T04:59:21.439Z,61.10
2018-05-27T05:01:51.507Z,61.22
2018-05-27T05:04:21.580Z,61.04
2018-05-27T05:06:51.512Z,61.37
2018-05-27T05:09:21.498Z,61.15
2018-05-27T05:11:50.541Z,61.14
2018-05-27T05:14:19.720Z,60.91
2018-05-27T05:16:48.837Z,60.82
2018-05-27T05:19:18.945Z,60.58
2018-05-27T05:21:48.079Z,60.64
2018-05-27T05:24:18.191Z,60.54
2018-05-27T05:26:47.273Z,60.40
2018-05-27T05:29:17.366Z,60.20
2018-05-27T05:31:46.477Z,59.93
2018-05-27T05:34:16.561Z,59.99
2018-05-27T05:36:45.703Z,59.99
2018-05-27T05:39:14.810Z,59.72
2018-05-27T05:41:43.915Z,59.57
2018-05-27T05:44:14.008Z,59.46
2018-05-27T05:46:43.137Z,59.08
2018-05-27T05:49:12.275Z,59.20
2018-05-27T05:51:41.416Z,59.48
2018-05-27T05:54:11.330Z,58.99
2018-05-27T05:56:40.448Z,58.90
2018-05-27T05:59:09.577Z,58.57
2018-05-27T06:01:39.442Z,58.64
2018-05-27T06:04:09.344Z,58.59
2018-05-27T06:06:39.224Z,58.49
2018-05-27T06:09:09.127Z,58.32
2018-05-27T06:11:39.005Z,57.92
2018-05-27T06:14:08.115Z,57.96
2018-05-27T06:16:37.252Z,57.90
2018-05-27T06:19:08.076Z,58.21
2018-05-27T06:21:37.188Z,57.93
2018-05-27T06:24:06.290Z,57.58
2018-05-27T06:26:35.410Z,57.44
2018-05-27T06:29:04.597Z,57.41
2018-05-27T06:31:34.430Z,57.32
2018-05-27T06:34:06.647Z,57.77
2018-05-27T06:36:36.569Z,57.50
2018-05-27T06:39:06.460Z,57.19
2018-05-27T06:41:35.542Z,56.94
2018-05-27T06:44:04.675Z,56.98
2018-05-27T06:46:33.800Z,56.60
2018-05-27T06:49:04.918Z,55.23
2018-05-27T06:51:34.770Z,54.99
2018-05-27T06:54:04.839Z,55.07
2018-05-27T06:56:34.819Z,55.10
2018-05-27T06:59:03.994Z,54.53
2018-05-27T07:01:33.119Z,54.17
2018-05-27T07:04:03.229Z,54.17
2018-05-27T07:06:32.319Z,54.44
2018-05-27T07:09:01.506Z,54.65
2018-05-27T07:11:31.401Z,54.04
2018-05-27T07:14:01.377Z,54.23
2018-05-27T07:16:30.731Z,53.90
2018-05-27T07:18:59.832Z,54.44
2018-05-27T07:21:28.948Z,54.02
2018-05-27T07:23:58.091Z,53.83
2018-05-27T07:26:27.942Z,53.67
2018-05-27T07:28:58.017Z,53.64
2018-05-27T07:31:27.918Z,53.66
2018-05-27T07:33:57.020Z,53.47
2018-05-27T07:36:26.874Z,53.49
2018-05-27T07:38:56.947Z,53.25
2018-05-27T07:41:26.078Z,52.69
2018-05-27T07:43:55.185Z,52.56
2018-05-27T07:46:24.300Z,52.56
2018-05-27T07:48:53.412Z,52.58
2018-05-27T07:51:23.329Z,52.45
2018-05-27T07:53:52.474Z,51.55
2018-05-27T07:56:22.192Z,51.64
2018-05-27T07:58:51.305Z,51.78
2018-05-27T08:01:20.463Z,52.02
2018-05-27T08:03:50.407Z,51.40
2018-05-27T08:06:20.453Z,51.02
2018-05-27T08:08:49.597Z,50.91
2018-05-27T08:11:19.037Z,51.06
2018-05-27T08:13:48.165Z,50.76
2018-05-27T08:16:17.294Z,51.00
2018-05-27T08:18:47.151Z,51.04
2018-05-27T08:21:16.280Z,51.12
2018-05-27T08:23:45.407Z,53.09
2018-05-27T08:26:14.517Z,52.73
2018-05-27T08:28:43.686Z,53.18
2018-05-27T08:31:13.763Z,53.77
2018-05-27T08:33:42.881Z,54.87
2018-05-27T08:36:11.996Z,53.88
2018-05-27T08:38:41.869Z,53.95
2018-05-27T08:41:12.735Z,54.18
2018-05-27T08:43:42.632Z,54.92
2018-05-27T08:46:11.705Z,54.96
2018-05-27T08:48:40.848Z,55.94
2018-05-27T08:51:10.786Z,55.53
2018-05-27T08:53:40.681Z,54.56
2018-05-27T08:56:10.596Z,54.89
2018-05-27T08:58:40.758Z,55.97
2018-05-27T09:01:09.869Z,54.67
2018-05-27T09:03:38.998Z,54.85
2018-05-27T09:06:08.335Z,55.12
2018-05-27T09:08:37.503Z,55.04
2018-05-27T09:11:07.539Z,54.99
2018-05-27T09:13:37.434Z,55.92
2018-05-27T09:16:06.529Z,56.02
2018-05-27T09:18:35.640Z,55.71
2018-05-27T09:21:04.810Z,55.55
2018-05-27T09:23:33.926Z,57.27
2018-05-27T09:26:03.115Z,56.03
2018-05-27T09:28:32.239Z,54.20
2018-05-27T09:31:02.692Z,53.63
2018-05-27T09:33:32.617Z,53.76
2018-05-27T09:36:01.729Z,55.05
2018-05-27T09:38:30.866Z,53.35
2018-05-27T09:40:59.986Z,53.36
2018-05-27T09:43:29.120Z,53.78
2018-05-27T09:45:59.190Z,52.33
2018-05-27T09:48:28.312Z,51.73
2018-05-27T09:50:58.230Z,51.14
2018-05-27T09:53:27.328Z,51.43
2018-05-27T09:55:59.120Z,50.91
2018-05-27T09:58:28.563Z,51.87
2018-05-27T10:00:58.592Z,51.64
2018-05-27T10:03:28.546Z,51.84
2018-05-27T10:05:58.645Z,50.87
2018-05-27T10:08:28.529Z,50.43
2018-05-27T10:10:59.152Z,49.78
2018-05-27T10:13:28.311Z,49.55
2018-05-27T10:15:57.449Z,48.41
2018-05-27T10:18:26.563Z,48.18
2018-05-27T10:20:55.842Z,48.04
2018-05-27T10:23:24.930Z,48.48
2018-05-27T10:25:54.097Z,48.85
2018-05-27T10:28:23.789Z,49.34
2018-05-27T10:30:53.675Z,50.34
2018-05-27T10:33:22.896Z,49.31
2018-05-27T10:35:52.761Z,47.41
2018-05-27T10:38:21.909Z,47.87
2018-05-27T10:40:51.067Z,47.91
2018-05-27T10:43:20.261Z,47.95
2018-05-27T10:45:49.390Z,46.54
2018-05-27T10:48:21.225Z,46.95
2018-05-27T10:50:50.360Z,47.06
2018-05-27T10:53:19.465Z,47.45
2018-05-27T10:55:48.585Z,45.91
2018-05-27T10:58:18.645Z,45.55
2018-05-27T11:00:47.762Z,44.67
2018-05-27T11:03:17.648Z,44.04
2018-05-27T11:05:46.850Z,43.52
2018-05-27T11:08:17.863Z,43.33
2018-05-27T11:10:46.988Z,44.46
2018-05-27T11:13:16.106Z,44.96
2018-05-27T11:15:46.044Z,41.99
2018-05-27T11:18:15.270Z,42.91
2018-05-27T11:20:44.441Z,41.71
2018-05-27T11:23:15.317Z,40.96
2018-05-27T11:25:44.425Z,40.12
2018-05-27T11:28:13.610Z,39.64
2018-05-27T11:30:43.547Z,38.17
2018-05-27T11:33:14.781Z,38.57
2018-05-27T11:35:44.652Z,39.61
2018-05-27T11:38:15.706Z,39.32
2018-05-27T11:40:44.822Z,39.20
2018-05-27T11:43:13.983Z,37.59
2018-05-27T11:45:43.117Z,37.71
2018-05-27T11:48:13.971Z,38.32
2018-05-27T11:50:43.134Z,37.41
2018-05-27T11:53:13.355Z,37.93
2018-05-27T11:55:43.269Z,40.59
2018-05-27T11:58:12.355Z,40.51
2018-05-27T12:00:41.469Z,39.46
2018-05-27T12:03:11.374Z,40.14
2018-05-27T12:05:40.512Z,39.84
2018-05-27T12:08:09.630Z,39.43
2018-05-27T12:10:38.733Z,39.30
2018-05-27T12:13:07.963Z,38.70
2018-05-27T12:15:37.099Z,39.24
2018-05-27T12:18:06.267Z,38.70
2018-05-27T12:20:35.377Z,38.58
2018-05-27T12:23:04.498Z,38.43
2018-05-27T12:25:33.667Z,37.19
2018-05-27T12:28:03.589Z,36.66
2018-05-27T12:30:32.726Z,36.53
2018-05-27T12:33:02.113Z,36.43
2018-05-27T12:35:31.214Z,37.66
2018-05-27T12:38:00.364Z,37.74
2018-05-27T12:40:29.479Z,37.81
2018-05-27T12:42:58.630Z,38.21
2018-05-27T12:45:28.772Z,38.25
2018-05-27T12:47:58.263Z,37.45
2018-05-27T12:50:28.432Z,38.42
2018-05-27T12:52:57.540Z,38.28
2018-05-27T12:55:27.629Z,38.74
2018-05-27T12:57:57.856Z,38.52
2018-05-27T13:00:26.990Z,39.20
2018-05-27T13:02:56.098Z,39.03
2018-05-27T13:05:25.258Z,39.62
2018-05-27T13:07:54.371Z,39.80
2018-05-27T13:10:25.318Z,39.10
2018-05-27T13:12:54.444Z,40.01
2018-05-27T13:15:25.568Z,38.74
2018-05-27T13:17:55.147Z,38.23
2018-05-27T13:20:26.007Z,37.44
2018-05-27T13:22:55.105Z,37.64
2018-05-27T13:25:24.995Z,38.23
2018-05-27T13:27:54.126Z,39.51
2018-05-27T13:30:23.274Z,39.73
2018-05-27T13:32:52.436Z,40.09
2018-05-27T13:35:22.683Z,39.94
2018-05-27T13:37:52.586Z,39.69
2018-05-27T13:40:22.474Z,39.61
2018-05-27T13:42:51.585Z,39.93
2018-05-27T13:45:20.701Z,40.06
2018-05-27T13:47:50.600Z,40.37
2018-05-27T13:50:19.743Z,40.34
2018-05-27T13:52:48.852Z,41.77
2018-05-27T13:55:19.061Z,42.90
2018-05-27T13:57:48.924Z,43.64
2018-05-27T14:00:18.126Z,43.41
2018-05-27T14:02:47.168Z,43.02
2018-05-27T14:05:16.293Z,42.69
2018-05-27T14:07:46.953Z,42.97
2018-05-27T14:10:16.903Z,42.89
2018-05-27T14:12:45.993Z,42.81
2018-05-27T14:15:15.121Z,42.22
2018-05-27T14:17:44.187Z,42.46
2018-05-27T14:20:13.362Z,42.18
2018-05-27T14:22:43.223Z,42.03
2018-05-27T14:25:12.400Z,42.04
2018-05-27T14:27:42.258Z,41.70
2018-05-27T14:30:12.216Z,41.82
2018-05-27T14:32:42.077Z,41.47
2018-05-27T14:35:11.240Z,41.82
2018-05-27T14:37:40.345Z,41.88
2018-05-27T14:40:09.518Z,41.83
2018-05-27T14:42:38.657Z,42.10
2018-05-27T14:45:07.797Z,42.42
2018-05-27T14:47:38.643Z,42.05
2018-05-27T14:50:08.513Z,41.95
2018-05-27T14:52:38.569Z,41.87
2018-05-27T14:55:07.660Z,41.98
2018-05-27T14:57:39.522Z,41.94
2018-05-27T15:00:09.442Z,41.88
2018-05-27T15:02:39.361Z,41.94
2018-05-27T15:05:08.489Z,41.61
2018-05-27T15:07:37.619Z,41.89
2018-05-27T15:10:06.701Z,41.65
2018-05-27T15:12:35.870Z,41.46
2018-05-27T15:15:04.955Z,41.65
2018-05-27T15:17:35.146Z,42.23
2018-05-27T15:20:05.018Z,41.98
2018-05-27T15:22:35.173Z,42.97
2018-05-27T15:25:05.103Z,44.00
2018-05-27T15:27:34.149Z,48.21
2018-05-27T15:30:03.302Z,49.88
2018-05-27T15:32:32.406Z,50.70
2018-05-27T15:35:02.523Z,50.98
2018-05-27T15:37:31.661Z,51.37
2018-05-27T15:40:02.837Z,52.26
2018-05-27T15:42:33.017Z,53.25
2018-05-27T15:45:02.660Z,53.89
2018-05-27T15:47:32.785Z,54.81
2018-05-27T15:50:02.652Z,55.36
2018-05-27T15:52:31.755Z,54.86
2018-05-27T15:55:00.899Z,54.53
2018-05-27T15:57:30.773Z,54.66
2018-05-27T15:59:59.911Z,55.10
2018-05-27T16:02:29.789Z,54.12
2018-05-27T16:04:58.891Z,53.92
2018-05-27T16:07:28.081Z,54.16
2018-05-27T16:09:57.174Z,54.35
2018-05-27T16:12:27.235Z,55.49
2018-05-27T16:14:57.117Z,55.53
2018-05-27T16:17:26.246Z,54.92
2018-05-27T16:19:55.394Z,54.89
2018-05-27T16:22:24.575Z,54.59
2018-05-27T16:24:53.704Z,54.46
2018-05-27T16:27:22.795Z,54.49
2018-05-27T16:29:51.938Z,54.84
2018-05-27T16:32:21.850Z,54.67
2018-05-27T16:34:50.954Z,55.33
2018-05-27T16:37:20.826Z,55.43
2018-05-27T16:39:49.965Z,55.30
2018-05-27T16:42:19.100Z,55.61
2018-05-27T16:44:49.004Z,55.71
2018-05-27T16:47:18.881Z,55.95
2018-05-27T16:49:48.024Z,56.09
2018-05-27T16:52:17.171Z,55.80
2018-05-27T16:54:46.257Z,56.03
2018-05-27T16:57:15.406Z,55.69
2018-05-27T16:59:46.386Z,56.44
2018-05-27T17:02:15.519Z,55.60
2018-05-27T17:04:44.650Z,54.97
2018-05-27T17:07:14.522Z,55.43
2018-05-27T17:09:44.401Z,55.65
2018-05-27T17:12:13.525Z,55.54
2018-05-27T17:14:43.414Z,55.51
2018-05-27T17:17:12.592Z,55.26
2018-05-27T17:19:41.726Z,55.19
2018-05-27T17:22:11.611Z,54.91
2018-05-27T17:24:40.831Z,54.80
2018-05-27T17:27:09.999Z,54.17
2018-05-27T17:29:39.142Z,53.93
2018-05-27T17:32:08.302Z,53.84
2018-05-27T17:34:38.392Z,52.84
2018-05-27T17:37:07.521Z,52.20
2018-05-27T17:39:36.652Z,52.04
2018-05-27T17:42:06.653Z,52.03
2018-05-27T17:44:35.739Z,52.29
2018-05-27T17:47:04.967Z,52.41
2018-05-27T17:49:34.059Z,52.99
2018-05-27T17:52:03.992Z,52.71
2018-05-27T17:54:34.927Z,52.53
2018-05-27T17:57:04.846Z,52.28
2018-05-27T17:59:34.711Z,52.58
2018-05-27T18:02:03.843Z,52.60
2018-05-27T18:04:34.679Z,52.56
2018-05-27T18:07:04.601Z,52.68
2018-05-27T18:09:34.732Z,52.64
2018-05-27T18:12:04.580Z,52.59
2018-05-27T18:14:34.816Z,52.46
2018-05-27T18:17:03.977Z,52.44
2018-05-27T18:19:33.100Z,52.64
2018-05-27T18:22:02.999Z,53.25
2018-05-27T18:24:33.832Z,54.47
2018-05-27T18:27:02.968Z,55.00
2018-05-27T18:29:32.075Z,56.64
2018-05-27T18:32:03.216Z,58.14
2018-05-27T18:34:33.127Z,59.39
2018-05-27T18:37:03.036Z,59.77
2018-05-27T18:39:32.942Z,60.56
2018-05-27T18:42:03.041Z,60.61
2018-05-27T18:44:32.185Z,60.08
2018-05-27T18:47:03.326Z,59.95
2018-05-27T18:49:33.378Z,60.34
2018-05-27T18:52:04.503Z,60.32
2018-05-27T18:54:34.376Z,60.97
2018-05-27T18:57:05.035Z,61.20
2018-05-27T18:59:34.995Z,61.50
2018-05-27T19:02:04.122Z,63.04
2018-05-27T19:04:33.281Z,64.38
2018-05-27T19:07:03.757Z,64.37
2018-05-27T19:09:32.889Z,64.82
2018-05-27T19:12:03.033Z,65.76
2018-05-27T19:14:32.183Z,67.28
2018-05-27T19:17:01.301Z,67.91
2018-05-27T19:19:30.421Z,67.64
2018-05-27T19:21:59.557Z,67.57
2018-05-27T19:24:28.674Z,67.76
2018-05-27T19:26:58.643Z,67.86
2018-05-27T19:29:27.767Z,68.05
2018-05-27T19:31:56.891Z,68.06
2018-05-27T19:34:26.794Z,67.95
2018-05-27T19:36:56.684Z,67.90
2018-05-27T19:39:25.855Z,68.05
2018-05-27T19:41:54.935Z,68.27
2018-05-27T19:44:24.833Z,68.28
2018-05-27T19:46:54.718Z,68.79
2018-05-27T19:49:23.917Z,68.97
2018-05-27T19:51:52.995Z,69.28
2018-05-27T19:54:22.934Z,69.48
2018-05-27T19:56:52.080Z,69.25
2018-05-27T19:59:21.210Z,68.98
2018-05-27T20:01:50.376Z,68.89
2018-05-27T20:04:19.496Z,69.29
2018-05-27T20:06:48.645Z,69.56
2018-05-27T20:09:18.508Z,69.60
2018-05-27T20:11:47.680Z,69.68
2018-05-27T20:14:16.792Z,70.02
2018-05-27T20:16:45.941Z,70.12
2018-05-27T20:19:15.857Z,70.13
2018-05-27T20:21:45.733Z,70.70
2018-05-27T20:24:14.886Z,71.10
2018-05-27T20:26:44.003Z,71.01
2018-05-27T20:29:13.149Z,71.09
2018-05-27T20:31:43.127Z,70.49
2018-05-27T20:34:12.278Z,70.32
2018-05-27T20:36:41.400Z,69.81
2018-05-27T20:39:10.507Z,69.92
2018-05-27T20:41:39.694Z,70.20
2018-05-27T20:44:08.873Z,70.42
2018-05-27T20:46:37.986Z,70.17
2018-05-27T20:49:07.093Z,70.12
2018-05-27T20:51:36.983Z,69.39
2018-05-27T20:54:06.119Z,68.50
2018-05-27T20:56:35.297Z,68.91
2018-05-27T20:59:04.376Z,69.52
2018-05-27T21:01:33.547Z,69.81
2018-05-27T21:04:03.428Z,69.74
2018-05-27T21:06:32.501Z,69.61
2018-05-27T21:09:03.840Z,70.20
2018-05-27T21:11:32.945Z,70.98
2018-05-27T21:14:03.239Z,71.64
2018-05-27T21:16:32.374Z,72.30
2018-05-27T21:19:01.514Z,72.88
2018-05-27T21:21:31.442Z,73.08
2018-05-27T21:24:01.338Z,73.46
2018-05-27T21:26:31.225Z,73.51
2018-05-27T21:29:00.416Z,73.21
2018-05-27T21:31:31.048Z,73.16
2018-05-27T21:34:00.160Z,73.24
2018-05-27T21:36:29.446Z,73.17
2018-05-27T21:38:58.580Z,73.10
2018-05-27T21:41:28.457Z,73.06
2018-05-27T21:43:57.576Z,73.01
2018-05-27T21:46:27.468Z,73.21
2018-05-27T21:48:56.603Z,73.29
2018-05-27T21:51:26.518Z,73.16
2018-05-27T21:53:56.382Z,73.39
2018-05-27T21:56:25.509Z,73.46
2018-05-27T21:58:55.387Z,73.52
2018-05-27T22:01:24.499Z,73.04
2018-05-27T22:03:53.710Z,72.30
2018-05-27T22:06:22.858Z,71.66
2018-05-27T22:08:51.965Z,71.71
2018-05-27T22:11:21.103Z,71.49
2018-05-27T22:13:50.212Z,71.45
2018-05-27T22:16:20.113Z,71.52
2018-05-27T22:18:49.245Z,71.94
2018-05-27T22:21:18.357Z,71.85
2018-05-27T22:23:47.471Z,71.58
2018-05-27T22:26:16.645Z,71.28
2018-05-27T22:28:45.862Z,71.55
2018-05-27T22:31:14.983Z,71.19
2018-05-27T22:33:44.184Z,70.52
2018-05-27T22:36:13.297Z,70.73
2018-05-27T22:38:43.169Z,71.57
2018-05-27T22:41:12.295Z,71.87
2018-05-27T22:43:41.396Z,72.18
2018-05-27T22:46:11.287Z,72.26
2018-05-27T22:48:40.434Z,72.37
2018-05-27T22:51:09.834Z,72.71
2018-05-27T22:53:39.719Z,72.80
2018-05-27T22:56:09.694Z,72.92
2018-05-27T22:58:38.775Z,72.89
2018-05-27T23:01:07.914Z,72.78
2018-05-27T23:03:36.994Z,72.82
2018-05-27T23:06:06.127Z,73.05
2018-05-27T23:08:35.258Z,73.30
2018-05-27T23:11:04.559Z,73.43
2018-05-27T23:13:34.457Z,73.84
2018-05-27T23:16:03.814Z,74.54
2018-05-27T23:18:32.919Z,75.29
2018-05-27T23:21:02.028Z,75.68
2018-05-27T23:23:31.919Z,75.91
2018-05-27T23:26:01.053Z,76.21
2018-05-27T23:28:30.928Z,76.05
2018-05-27T23:31:00.077Z,75.94
2018-05-27T23:33:29.176Z,76.02
2018-05-27T23:35:58.279Z,75.91
2018-05-27T23:38:27.397Z,75.59
2018-05-27T23:40:56.500Z,75.72
2018-05-27T23:43:25.622Z,75.53
2018-05-27T23:45:56.268Z,75.71
2018-05-27T23:48:26.164Z,75.94
2018-05-27T23:50:55.278Z,76.92
2018-05-27T23:53:24.443Z,77.51
2018-05-27T23:55:53.909Z,78.26
2018-05-27T23:58:23.027Z,78.21
